Time;durP1;ratioP1;P1;durP2;ratioP2;P2;SDS_P1;SDS_P2;PMS_P1;PMS_P2;Temp;Humidity;BMP_temperature;BMP_pressure;BME280_temperature;BME280_humidity;BME280_pressure;Samples;Min_cycle;Max_cycle;Signal;HPM_P1;HPM_P2
2022/06/27 00:00:28;;;;;;;2.50;2.30;;;23.20;79.30;;;;;;5024830;28;20048;-73
2022/06/27 00:02:54;;;;;;;2.38;1.83;;;23.20;79.10;;;;;;5024559;28;20097;-73
2022/06/27 00:05:19;;;;;;;3.00;2.30;;;23.20;78.50;;;;;;5024715;28;20033;-73
2022/06/27 00:07:45;;;;;;;4.27;1.80;;;23.10;78.70;;;;;;5019508;28;20037;-73
2022/06/27 00:10:11;;;;;;;3.65;2.20;;;23.10;79.30;;;;;;5005009;28;20029;-72
2022/06/27 00:12:38;;;;;;;3.22;2.03;;;23.10;79.70;;;;;;5015165;28;20379;-72
2022/06/27 00:15:05;;;;;;;3.28;1.80;;;23.10;80.40;;;;;;5024429;28;20400;-73
2022/06/27 00:17:30;;;;;;;3.75;2.20;;;23.00;80.40;;;;;;5024541;28;20228;-73
2022/06/27 00:19:57;;;;;;;3.67;2.03;;;23.00;80.40;;;;;;5024579;28;20041;-72
2022/06/27 00:22:22;;;;;;;3.70;2.35;;;23.00;80.30;;;;;;5024404;28;20025;-72
2022/06/27 00:24:48;;;;;;;3.00;2.30;;;23.00;80.60;;;;;;5024072;28;20419;-72
2022/06/27 00:27:14;;;;;;;2.50;2.30;;;22.90;80.40;;;;;;5022955;28;20033;-72
2022/06/27 00:29:40;;;;;;;2.50;2.30;;;22.90;81.10;;;;;;5024239;28;20420;-72
2022/06/27 00:32:07;;;;;;;2.40;2.05;;;22.90;81.40;;;;;;5024197;28;20037;-72
2022/06/27 00:34:33;;;;;;;3.13;2.63;;;22.90;82.40;;;;;;5022612;28;20096;-72
2022/06/27 00:36:58;;;;;;;2.73;2.50;;;22.80;82.00;;;;;;5023992;28;20348;-72
2022/06/27 00:39:24;;;;;;;2.63;2.40;;;22.80;82.20;;;;;;5024251;28;20272;-73
2022/06/27 00:41:50;;;;;;;3.37;2.60;;;22.80;82.30;;;;;;5023674;28;20029;-72
2022/06/27 00:44:40;;;;;;;2.57;2.37;;;22.80;82.60;;;;;;5022834;28;20299;-73
2022/06/27 00:47:07;;;;;;;4.65;2.65;;;22.80;83.20;;;;;;5016619;28;20348;-72
2022/06/27 00:49:34;;;;;;;3.30;2.63;;;22.80;83.00;;;;;;5023844;28;20040;-72
2022/06/27 00:52:01;;;;;;;;;;;22.80;83.70;;;;;;5024112;28;20025;-72
2022/06/27 00:54:27;;;;;;;2.80;2.40;;;22.80;84.10;;;;;;5022452;28;19905;-72
2022/06/27 00:56:53;;;;;;;2.40;2.20;;;22.80;84.60;;;;;;5022511;28;20096;-72
2022/06/27 00:59:19;;;;;;;2.70;2.50;;;22.80;84.40;;;;;;5023481;28;20022;-72
2022/06/27 01:01:45;;;;;;;2.80;2.60;;;22.70;85.00;;;;;;5023654;28;20022;-72
2022/06/27 01:04:10;;;;;;;3.70;2.33;;;22.70;84.60;;;;;;5023486;28;20064;-72
2022/06/27 01:06:36;;;;;;;2.43;2.23;;;22.70;84.90;;;;;;5023619;28;20034;-72
2022/06/27 01:09:03;;;;;;;3.03;2.20;;;22.70;85.20;;;;;;5022417;28;20060;-72
2022/06/27 01:11:28;;;;;;;;;;;22.60;85.60;;;;;;5022898;28;20084;-73
2022/06/27 01:13:54;;;;;;;2.75;2.55;;;22.70;85.60;;;;;;5038249;28;19977;-73
2022/06/27 01:16:20;;;;;;;3.57;2.43;;;22.70;86.60;;;;;;5021746;28;20064;-72
2022/06/27 01:18:45;;;;;;;3.07;2.87;;;22.60;86.30;;;;;;5023388;28;20040;-73
2022/06/27 01:21:24;;;;;;;3.10;2.83;;;22.60;86.70;;;;;;5022319;28;20277;-73
2022/06/27 01:23:51;;;;;;;3.53;2.90;;;22.60;86.90;;;;;;5021919;28;20056;-73
2022/06/27 01:26:18;;;;;;;2.80;2.53;;;22.60;87.30;;;;;;5022214;28;20026;-73
2022/06/27 01:28:44;;;;;;;2.78;2.58;;;22.60;87.00;;;;;;5021772;28;20048;-73
2022/06/27 01:31:13;;;;;;;2.73;2.53;;;22.60;86.90;;;;;;5022105;28;20339;-72
2022/06/27 01:33:39;;;;;;;2.95;2.60;;;22.60;87.60;;;;;;5021692;28;20320;-73
2022/06/27 01:38:53;;;;;;;3.15;2.85;;;22.60;88.30;;;;;;5025850;23;20442;-73
2022/06/27 01:41:19;;;;;;;3.75;2.42;;;22.60;88.00;;;;;;4996137;28;20381;-73
2022/06/27 01:43:45;;;;;;;4.97;2.67;;;22.50;88.90;;;;;;4981265;28;20050;-73
2022/06/27 01:46:12;;;;;;;6.40;2.90;;;22.50;89.20;;;;;;4965393;28;20363;-73
2022/06/27 01:48:38;;;;;;;3.80;2.85;;;22.50;89.60;;;;;;4965196;28;20214;-74
2022/06/27 01:51:04;;;;;;;;;;;22.50;90.10;;;;;;4981543;28;20042;-73
2022/06/27 01:53:30;;;;;;;2.60;2.40;;;22.50;89.70;;;;;;4964511;28;19906;-73
2022/06/27 01:55:55;;;;;;;3.20;2.77;;;22.40;90.30;;;;;;4974870;28;20081;-73
2022/06/27 01:58:21;;;;;;;3.77;3.10;;;22.40;90.20;;;;;;4967482;28;20273;-73
2022/06/27 02:00:47;;;;;;;3.90;3.20;;;22.40;90.60;;;;;;5000733;28;20083;-75
2022/06/27 02:03:13;;;;;;;3.53;2.60;;;22.40;91.10;;;;;;5000359;28;20025;-74
2022/06/27 02:05:39;;;;;;;3.47;3.17;;;22.40;91.60;;;;;;5000511;28;20257;-74
2022/06/27 02:08:05;;;;;;;3.40;3.10;;;22.40;91.20;;;;;;5000341;28;20042;-74
2022/06/27 02:10:30;;;;;;;4.33;3.50;;;22.40;91.20;;;;;;5016646;28;20281;-75
2022/06/27 02:12:56;;;;;;;3.60;2.90;;;22.40;90.40;;;;;;5001298;28;20114;-74
2022/06/27 02:15:22;;;;;;;2.77;2.57;;;22.30;90.20;;;;;;5000566;28;20065;-73
2022/06/27 02:17:48;;;;;;;3.10;2.70;;;22.20;90.10;;;;;;4996474;28;20022;-73
2022/06/27 02:20:14;;;;;;;3.00;2.80;;;22.20;90.00;;;;;;4964850;28;20242;-74
2022/06/27 02:22:40;;;;;;;3.13;2.72;;;22.10;90.00;;;;;;4980714;28;20019;-74
2022/06/27 02:25:07;;;;;;;3.83;2.55;;;22.20;90.50;;;;;;4964935;28;20094;-74
2022/06/27 02:27:34;;;;;;;;;;;22.10;90.00;;;;;;4982400;28;20343;-74
2022/06/27 02:29:59;;;;;;;2.60;2.35;;;22.10;90.10;;;;;;4981014;28;20001;-74
2022/06/27 02:32:26;;;;;;;2.80;2.60;;;22.20;89.10;;;;;;4982102;28;20107;-73
2022/06/27 02:34:52;;;;;;;;;;;22.20;89.90;;;;;;4980992;28;20069;-73
2022/06/27 02:37:17;;;;;;;3.70;2.42;;;22.20;90.60;;;;;;4981860;28;19969;-74
2022/06/27 02:39:43;;;;;;;3.33;2.23;;;22.20;90.70;;;;;;4964797;28;20023;-74
2022/06/27 02:42:09;;;;;;;2.42;2.10;;;22.20;89.90;;;;;;4949021;28;20213;-74
2022/06/27 02:44:35;;;;;;;5.78;2.53;;;22.20;88.40;;;;;;4980329;28;20026;-74
2022/06/27 02:47:01;;;;;;;7.70;2.83;;;22.20;89.50;;;;;;4996781;28;20026;-73
2022/06/27 02:49:27;;;;;;;3.20;2.90;;;22.20;90.80;;;;;;4984022;28;20038;-74
2022/06/27 02:52:07;;;;;;;4.20;3.80;;;22.10;91.50;;;;;;5000171;28;20054;-74
2022/06/27 02:54:52;;;;;;;4.88;4.20;;;22.10;92.50;;;;;;5001057;28;20265;-73
2022/06/27 02:57:32;;;;;;;7.82;4.28;;;22.00;93.30;;;;;;4985449;28;20034;-74
2022/06/27 02:59:58;;;;;;;11.90;4.70;;;21.90;93.90;;;;;;4973077;28;20336;-73
2022/06/27 03:02:25;;;;;;;6.37;5.53;;;21.70;94.50;;;;;;4987754;28;20022;-74
2022/06/27 03:04:51;;;;;;;5.95;4.80;;;21.70;95.20;;;;;;4987621;28;20033;-75
2022/06/27 03:07:17;;;;;;;6.50;4.82;;;21.60;95.50;;;;;;4987602;28;20026;-74
2022/06/27 03:09:43;;;;;;;7.03;4.97;;;21.50;96.00;;;;;;5003751;28;20101;-74
2022/06/27 03:12:08;;;;;;;6.17;5.33;;;21.50;96.40;;;;;;5003751;28;20026;-74
2022/06/27 03:14:34;;;;;;;7.30;6.60;;;21.40;96.80;;;;;;5003594;28;20068;-74
2022/06/27 03:17:00;;;;;;;7.40;5.80;;;21.40;97.10;;;;;;5003558;28;20022;-74
2022/06/27 03:19:26;;;;;;;7.13;5.77;;;21.30;97.90;;;;;;5004923;28;20155;-74
2022/06/27 03:21:51;;;;;;;7.97;6.37;;;21.20;98.40;;;;;;5003495;28;20046;-74
2022/06/27 03:24:17;;;;;;;7.23;6.17;;;21.20;99.00;;;;;;5004467;28;20023;-75
2022/06/27 03:26:43;;;;;;;8.20;6.60;;;21.10;99.40;;;;;;4987312;28;20089;-75
2022/06/27 03:29:09;;;;;;;5.80;5.03;;;21.00;99.60;;;;;;5004677;28;20041;-74
2022/06/27 03:31:35;;;;;;;7.85;5.63;;;21.10;99.90;;;;;;5004419;28;20018;-74
2022/06/27 03:34:00;;;;;;;7.27;6.13;;;21.20;99.90;;;;;;5002979;28;20049;-74
2022/06/27 03:36:26;;;;;;;9.37;6.93;;;21.20;99.90;;;;;;4983642;28;20109;-75
2022/06/27 03:38:52;;;;;;;7.87;5.97;;;21.30;99.90;;;;;;4992234;28;20065;-74
2022/06/27 03:41:18;;;;;;;9.00;5.93;;;21.30;99.90;;;;;;5004357;28;20300;-74
2022/06/27 03:43:43;;;;;;;7.17;6.17;;;21.30;99.90;;;;;;4998876;28;20034;-74
2022/06/27 03:46:09;;;;;;;7.33;6.17;;;21.20;99.90;;;;;;5003106;28;20030;-74
2022/06/27 03:51:19;;;;;;;9.45;6.90;;;21.30;99.90;;;;;;5002081;28;20033;-74
2022/06/27 03:53:45;;;;;;;8.10;6.93;;;21.10;99.90;;;;;;4998582;28;20034;-74
2022/06/27 03:56:11;;;;;;;10.30;7.10;;;20.90;99.90;;;;;;5003081;28;20022;-74
2022/06/27 03:58:36;;;;;;;7.40;6.73;;;20.70;99.90;;;;;;5000924;28;20041;-74
2022/06/27 04:01:03;;;;;;;9.57;7.03;;;20.60;99.90;;;;;;5001950;28;20084;-74
2022/06/27 04:03:30;;;;;;;8.25;7.03;;;20.60;99.90;;;;;;4996447;28;20325;-75
2022/06/27 04:05:56;;;;;;;7.60;6.65;;;20.50;99.90;;;;;;4998952;28;20081;-74
2022/06/27 04:08:21;;;;;;;12.13;6.57;;;20.50;99.90;;;;;;5001924;28;20034;-74
2022/06/27 04:10:47;;;;;;;6.90;6.20;;;20.50;99.90;;;;;;4994044;28;20045;-74
2022/06/27 04:13:13;;;;;;;6.73;6.03;;;20.50;99.90;;;;;;5002638;28;20026;-74
2022/06/27 04:15:39;;;;;;;9.07;5.80;;;20.60;99.90;;;;;;4981336;28;20041;-74
2022/06/27 04:18:05;;;;;;;7.10;6.40;;;20.60;99.90;;;;;;4984834;28;20393;-74
2022/06/27 04:20:31;;;;;;;15.43;7.83;;;20.70;99.90;;;;;;4975425;28;20050;-73
2022/06/27 04:22:56;;;;;;;11.60;7.20;;;20.70;99.90;;;;;;4982565;28;20025;-73
2022/06/27 04:25:22;;;;;;;12.07;7.07;;;20.70;99.90;;;;;;4987848;28;20037;-74
2022/06/27 04:27:48;;;;;;;17.93;8.60;;;20.80;99.90;;;;;;5002298;28;20046;-74
2022/06/27 04:30:16;;;;;;;7.70;6.30;;;20.90;99.90;;;;;;4993675;28;20173;-74
2022/06/27 04:32:44;;;;;;;6.53;5.88;;;20.90;99.90;;;;;;4998829;28;20030;-74
2022/06/27 04:35:10;;;;;;;9.77;6.18;;;20.90;99.90;;;;;;4984767;28;20022;-74
2022/06/27 04:37:40;;;;;;;7.40;6.70;;;20.90;99.90;;;;;;4969103;28;20078;-74
2022/06/27 04:40:07;;;;;;;8.70;6.05;;;20.90;99.90;;;;;;4987964;28;20046;-74
2022/06/27 04:42:32;;;;;;;6.88;6.18;;;20.90;99.90;;;;;;4973987;28;20146;-74
2022/06/27 04:44:58;;;;;;;8.50;6.70;;;20.90;99.90;;;;;;4992055;28;20029;-74
2022/06/27 04:47:25;;;;;;;10.35;6.50;;;20.90;99.90;;;;;;4994126;28;20030;-74
2022/06/27 04:49:51;;;;;;;8.20;7.03;;;20.90;99.90;;;;;;4991334;28;20085;-74
2022/06/27 04:52:18;;;;;;;12.80;6.30;;;20.90;99.90;;;;;;4993391;28;20110;-73
2022/06/27 04:54:43;;;;;;;;;;;20.90;99.90;;;;;;4976167;28;20034;-73
2022/06/27 04:57:09;;;;;;;7.82;6.20;;;20.90;99.90;;;;;;4991219;28;20188;-73
2022/06/27 04:59:35;;;;;;;7.00;6.07;;;20.90;99.90;;;;;;4986554;28;20030;-74
2022/06/27 05:02:01;;;;;;;7.73;5.90;;;20.90;99.90;;;;;;4971309;28;20049;-74
2022/06/27 05:04:28;;;;;;;7.00;6.30;;;20.90;99.90;;;;;;4974040;28;20030;-74
2022/06/27 05:06:55;;;;;;;13.00;6.43;;;20.90;99.90;;;;;;4998456;28;20026;-74
2022/06/27 05:09:21;;;;;;;7.35;6.65;;;21.00;99.90;;;;;;5000287;28;20118;-74
2022/06/27 05:11:50;;;;;;;13.25;6.55;;;21.10;99.90;;;;;;4996237;28;20034;-74
2022/06/27 05:14:16;;;;;;;6.28;5.68;;;21.10;99.90;;;;;;4982303;28;20101;-74
2022/06/27 05:16:42;;;;;;;7.07;5.30;;;21.10;99.90;;;;;;4997689;28;20084;-74
2022/06/27 05:19:07;;;;;;;6.90;6.20;;;21.20;99.90;;;;;;4995505;28;20015;-73
2022/06/27 05:21:33;;;;;;;7.40;5.60;;;21.20;99.90;;;;;;4998052;28;20037;-73
2022/06/27 05:23:59;;;;;;;6.70;5.83;;;21.20;99.90;;;;;;5000052;28;20025;-73
2022/06/27 05:26:25;;;;;;;9.17;5.87;;;21.20;99.90;;;;;;5008791;28;20276;-73
2022/06/27 05:28:52;;;;;;;8.32;6.70;;;21.20;99.90;;;;;;5000796;28;20140;-73
2022/06/27 05:31:17;;;;;;;9.18;6.85;;;21.10;99.90;;;;;;5000860;28;20026;-73
2022/06/27 05:33:44;;;;;;;7.57;6.40;;;21.10;99.90;;;;;;5000320;28;20085;-73
2022/06/27 05:36:10;;;;;;;10.23;6.35;;;21.10;99.90;;;;;;5000721;28;20030;-73
2022/06/27 05:38:37;;;;;;;7.32;6.55;;;21.00;99.90;;;;;;5001437;28;20329;-73
2022/06/27 05:41:03;;;;;;;7.60;6.80;;;21.00;99.90;;;;;;4984562;28;20061;-74
2022/06/27 05:43:30;;;;;;;7.90;6.97;;;21.00;99.90;;;;;;5000514;28;20029;-73
2022/06/27 05:45:56;;;;;;;;;;;20.90;99.90;;;;;;5000737;28;20034;-73
2022/06/27 05:48:22;;;;;;;8.00;6.35;;;20.90;99.90;;;;;;5000617;28;20001;-73
2022/06/27 05:50:48;;;;;;;7.57;6.72;;;20.90;99.90;;;;;;4996501;28;20122;-73
2022/06/27 05:53:14;;;;;;;8.63;6.83;;;20.90;99.90;;;;;;4982434;28;20030;-73
2022/06/27 05:55:40;;;;;;;10.35;7.85;;;20.90;99.90;;;;;;4997672;28;20023;-73
2022/06/27 05:58:08;;;;;;;8.13;6.95;;;20.90;99.90;;;;;;4997418;28;20034;-73
2022/06/27 06:00:34;;;;;;;8.52;6.63;;;20.90;99.90;;;;;;4997250;28;20030;-73
2022/06/27 06:03:00;;;;;;;8.07;6.38;;;21.00;99.90;;;;;;4997015;28;20026;-73
2022/06/27 06:05:26;;;;;;;10.47;6.70;;;21.00;99.90;;;;;;4982191;28;20337;-73
2022/06/27 06:07:51;;;;;;;12.27;7.80;;;21.00;99.90;;;;;;4982317;28;20022;-73
2022/06/27 06:10:17;;;;;;;8.70;7.07;;;21.10;99.90;;;;;;4982077;28;20075;-73
2022/06/27 06:12:43;;;;;;;8.67;7.77;;;21.10;99.90;;;;;;4993988;28;20022;-72
2022/06/27 06:15:09;;;;;;;9.60;7.00;;;21.20;99.90;;;;;;5001634;28;20022;-73
2022/06/27 06:17:36;;;;;;;7.63;6.93;;;21.20;99.90;;;;;;5000053;28;20265;-73
2022/06/27 06:20:04;;;;;;;9.50;6.88;;;21.30;99.90;;;;;;4998909;28;20030;-72
2022/06/27 06:22:30;;;;;;;10.48;7.40;;;21.40;99.90;;;;;;4989189;28;20045;-73
2022/06/27 06:24:56;;;;;;;8.35;6.70;;;21.40;99.90;;;;;;4981917;28;20042;-74
2022/06/27 06:27:22;;;;;;;8.05;7.25;;;21.50;99.90;;;;;;5001781;28;20053;-74
2022/06/27 06:29:48;;;;;;;9.70;7.20;;;21.50;99.90;;;;;;4988465;28;20023;-74
2022/06/27 06:32:14;;;;;;;8.00;6.60;;;21.60;99.90;;;;;;4988954;28;20121;-74
2022/06/27 06:34:40;;;;;;;7.80;7.10;;;21.60;99.90;;;;;;4957485;28;20102;-74
2022/06/27 06:37:07;;;;;;;8.70;7.85;;;21.60;99.90;;;;;;4987901;28;20343;-72
2022/06/27 06:39:33;;;;;;;10.02;7.72;;;21.60;99.90;;;;;;4990917;28;20344;-72
2022/06/27 06:41:59;;;;;;;9.02;8.13;;;21.70;99.90;;;;;;4957608;28;20286;-72
2022/06/27 06:44:25;;;;;;;9.85;8.10;;;21.80;99.90;;;;;;4988873;28;20102;-72
2022/06/27 06:46:55;;;;;;;8.38;7.53;;;21.80;99.90;;;;;;4985238;28;20117;-71
2022/06/27 06:49:24;;;;;;;9.68;6.93;;;21.90;99.90;;;;;;4964773;28;20338;-72
2022/06/27 06:51:50;;;;;;;8.73;7.63;;;21.90;99.90;;;;;;4993197;28;20030;-71
2022/06/27 06:54:20;;;;;;;9.80;7.90;;;21.90;99.90;;;;;;5000976;28;20096;-72
2022/06/27 06:56:49;;;;;;;10.70;7.80;;;22.00;99.90;;;;;;5015993;28;20328;-73
2022/06/27 06:59:15;;;;;;;9.27;7.22;;;22.00;99.90;;;;;;4984112;28;20065;-73
2022/06/27 07:01:43;;;;;;;9.07;7.55;;;22.10;99.90;;;;;;4999517;28;20065;-73
2022/06/27 07:04:11;;;;;;;9.18;7.32;;;22.10;99.90;;;;;;4999371;28;20030;-73
2022/06/27 07:06:38;;;;;;;7.32;6.63;;;22.10;99.90;;;;;;5001056;28;20125;-73
2022/06/27 07:09:04;;;;;;;8.75;7.47;;;22.20;99.90;;;;;;5000776;28;20026;-74
2022/06/27 07:11:32;;;;;;;8.57;7.70;;;22.30;99.90;;;;;;4999952;28;20022;-73
2022/06/27 07:13:58;;;;;;;9.02;6.80;;;22.30;99.80;;;;;;5000856;28;20034;-73
2022/06/27 07:16:25;;;;;;;7.88;7.00;;;22.30;99.60;;;;;;4996131;28;20053;-73
2022/06/27 07:18:54;;;;;;;8.13;6.65;;;22.40;99.60;;;;;;4988164;28;20061;-73
2022/06/27 07:21:20;;;;;;;8.48;7.68;;;22.40;99.70;;;;;;4999185;28;20026;-73
2022/06/27 07:23:47;;;;;;;8.40;7.53;;;22.50;99.20;;;;;;5000736;28;20054;-73
2022/06/27 07:26:13;;;;;;;8.07;7.28;;;22.60;99.00;;;;;;4967868;28;20030;-73
2022/06/27 07:28:40;;;;;;;7.20;6.50;;;22.60;99.00;;;;;;4999782;28;20102;-73
2022/06/27 07:31:09;;;;;;;9.63;6.93;;;22.60;98.80;;;;;;4986007;28;20043;-73
2022/06/27 07:33:36;;;;;;;10.05;7.57;;;22.60;98.90;;;;;;4980854;28;20077;-73
2022/06/27 07:36:06;;;;;;;9.50;7.35;;;22.70;99.10;;;;;;4980172;28;20042;-73
2022/06/27 07:38:38;;;;;;;6.90;6.25;;;22.70;99.50;;;;;;4964547;28;20274;-73
2022/06/27 07:41:11;;;;;;;8.45;6.88;;;22.70;99.60;;;;;;4981527;28;20068;-72
2022/06/27 07:43:37;;;;;;;8.23;7.03;;;22.90;99.70;;;;;;4980552;28;20050;-72
2022/06/27 07:46:03;;;;;;;9.13;7.05;;;22.90;99.10;;;;;;4984510;28;20022;-73
2022/06/27 07:48:29;;;;;;;7.40;6.53;;;22.90;98.90;;;;;;4983480;28;20129;-73
2022/06/27 07:50:58;;;;;;;8.73;7.05;;;22.90;98.60;;;;;;4983395;28;20034;-72
2022/06/27 07:53:24;;;;;;;6.47;5.88;;;23.00;98.70;;;;;;5001875;28;20050;-72
2022/06/27 07:55:59;;;;;;;7.57;6.50;;;23.00;98.90;;;;;;4986798;28;20027;-72
2022/06/27 07:58:33;;;;;;;7.28;6.57;;;23.10;98.90;;;;;;4987328;28;20036;-72
2022/06/27 08:01:02;;;;;;;7.97;6.38;;;23.10;98.80;;;;;;5002850;28;20026;-72
2022/06/27 08:03:39;;;;;;;8.80;6.60;;;23.10;99.20;;;;;;5003234;28;20372;-72
2022/06/27 08:06:20;;;;;;;8.90;5.45;;;23.20;98.90;;;;;;4988328;28;20023;-72
2022/06/27 08:08:54;;;;;;;6.60;5.90;;;23.20;98.50;;;;;;5003979;28;20117;-72
2022/06/27 08:11:23;;;;;;;9.13;6.82;;;23.20;98.50;;;;;;5003618;28;20023;-73
2022/06/27 08:13:50;;;;;;;12.10;5.97;;;23.30;98.20;;;;;;5003569;28;20053;-71
2022/06/27 08:16:18;;;;;;;7.30;6.43;;;23.30;98.20;;;;;;5002668;28;20026;-72
2022/06/27 08:18:46;;;;;;;7.10;6.22;;;23.40;98.30;;;;;;4991084;28;20028;-72
2022/06/27 08:21:13;;;;;;;7.70;7.00;;;23.40;98.20;;;;;;5002372;28;20324;-72
2022/06/27 08:23:39;;;;;;;7.40;6.70;;;23.50;98.00;;;;;;5001395;28;20034;-73
2022/06/27 08:26:07;;;;;;;7.20;6.50;;;23.50;97.50;;;;;;5002335;28;20022;-73
2022/06/27 08:28:35;;;;;;;8.30;6.20;;;23.50;97.80;;;;;;5003198;28;20128;-73
2022/06/27 08:31:03;;;;;;;6.55;5.95;;;23.50;97.60;;;;;;5002346;28;20038;-72
2022/06/27 08:33:30;;;;;;;8.20;6.90;;;23.50;97.50;;;;;;5002114;28;20022;-72
2022/06/27 08:35:57;;;;;;;7.57;6.82;;;23.50;97.10;;;;;;4990350;28;20034;-72
2022/06/27 08:38:24;;;;;;;8.00;6.95;;;23.50;97.10;;;;;;4989678;28;20026;-80
2022/06/27 08:40:50;;;;;;;;;;;23.50;97.40;;;;;;4968372;28;20106;-87
2022/06/27 08:43:17;;;;;;;6.63;6.00;;;23.50;97.50;;;;;;4952342;28;19914;-86
2022/06/27 08:45:47;;;;;;;6.53;5.93;;;23.50;97.90;;;;;;4952455;28;20026;-85
2022/06/27 08:48:14;;;;;;;5.95;5.43;;;23.50;97.70;;;;;;4952090;28;20250;-85
2022/06/27 08:50:41;;;;;;;6.22;5.63;;;23.50;97.50;;;;;;4968169;28;20046;-85
2022/06/27 08:53:07;;;;;;;8.25;7.03;;;23.50;96.90;;;;;;4978828;28;20022;-85
2022/06/27 08:55:33;;;;;;;7.13;6.10;;;23.50;96.70;;;;;;4986621;28;20033;-85
2022/06/27 08:58:04;;;;;;;10.02;5.80;;;23.40;96.10;;;;;;5002736;28;20023;-87
2022/06/27 09:00:32;;;;;;;7.53;5.78;;;23.40;96.00;;;;;;5003189;28;20116;-86
2022/06/27 09:02:57;;;;;;;8.50;5.15;;;23.40;95.70;;;;;;4970711;28;20026;-86
2022/06/27 09:05:27;;;;;;;6.07;5.47;;;23.30;96.40;;;;;;4986243;28;20313;-86
2022/06/27 09:08:02;;;;;;;5.35;4.85;;;23.30;96.00;;;;;;4972422;28;20026;-83
2022/06/27 09:10:42;;;;;;;5.72;3.90;;;23.30;96.60;;;;;;4990269;28;20135;-82
2022/06/27 09:13:12;;;;;;;6.60;4.55;;;23.40;96.70;;;;;;4975491;28;20026;-81
2022/06/27 09:16:01;;;;;;;5.00;4.60;;;23.30;96.00;;;;;;4990174;28;20033;-83
2022/06/27 09:18:37;;;;;;;5.47;4.28;;;23.30;96.10;;;;;;4988321;28;20064;-82
2022/06/27 09:21:11;;;;;;;4.60;4.20;;;23.30;96.20;;;;;;4987005;28;20037;-83
2022/06/27 09:23:47;;;;;;;4.55;4.15;;;23.20;95.60;;;;;;4985934;28;20026;-85
2022/06/27 09:26:19;;;;;;;4.45;3.28;;;23.20;95.60;;;;;;5004486;28;20088;-81
2022/06/27 09:28:56;;;;;;;3.63;3.33;;;23.20;95.90;;;;;;5004192;28;20022;-83
2022/06/27 09:31:31;;;;;;;3.50;3.17;;;23.20;96.50;;;;;;4985642;28;20063;-82
2022/06/27 09:34:19;;;;;;;8.48;4.35;;;23.20;96.40;;;;;;5007222;28;20018;-72
2022/06/27 09:37:03;;;;;;;6.10;3.03;;;23.20;96.20;;;;;;5003671;28;20022;-80
2022/06/27 09:39:32;;;;;;;5.30;2.83;;;23.20;95.80;;;;;;4986490;28;20129;-71
2022/06/27 09:42:03;;;;;;;5.88;2.83;;;23.30;96.20;;;;;;5002045;28;20224;-71
2022/06/27 09:44:39;;;;;;;3.97;2.55;;;23.30;96.40;;;;;;5000860;28;20026;-71
2022/06/27 09:47:09;;;;;;;3.70;3.20;;;23.30;95.60;;;;;;5001826;28;20037;-71
2022/06/27 09:49:41;;;;;;;3.30;2.97;;;23.30;95.70;;;;;;5000847;28;20026;-71
2022/06/27 09:52:12;;;;;;;5.88;3.20;;;23.40;95.30;;;;;;5000617;28;20030;-71
2022/06/27 09:54:40;;;;;;;3.85;2.30;;;23.40;94.90;;;;;;5000363;28;20072;-71
2022/06/27 09:57:07;;;;;;;3.20;2.70;;;23.50;95.20;;;;;;4996455;28;20198;-71
2022/06/27 09:59:33;;;;;;;3.20;2.20;;;23.60;95.50;;;;;;4997283;28;20018;-71
2022/06/27 10:02:00;;;;;;;4.43;2.42;;;23.50;94.80;;;;;;4997504;28;20484;-71
2022/06/27 10:04:26;;;;;;;2.70;2.08;;;23.60;94.40;;;;;;4996945;28;20345;-71
2022/06/27 10:06:53;;;;;;;4.05;2.60;;;23.60;94.60;;;;;;4981727;28;20026;-71
2022/06/27 10:09:26;;;;;;;2.60;2.38;;;23.60;95.30;;;;;;4982143;28;20314;-71
2022/06/27 10:12:36;;;;;;;3.08;2.40;;;23.60;94.50;;;;;;4980773;28;20066;-71
2022/06/27 10:15:10;;;;;;;3.05;2.05;;;23.70;94.00;;;;;;4980857;28;20081;-71
2022/06/27 10:17:38;;;;;;;2.17;2.00;;;23.60;93.70;;;;;;4982108;28;20317;-71
2022/06/27 10:20:12;;;;;;;2.75;2.30;;;23.60;94.00;;;;;;4980578;28;20234;-71
2022/06/27 10:22:39;;;;;;;2.75;2.03;;;23.50;93.90;;;;;;4995687;28;20086;-72
2022/06/27 10:25:26;;;;;;;2.38;2.03;;;23.50;94.20;;;;;;4996706;28;20025;-70
2022/06/27 10:28:14;;;;;;;2.58;1.85;;;23.50;94.30;;;;;;4982040;28;20191;-71
2022/06/27 10:30:59;;;;;;;3.42;1.98;;;23.60;93.90;;;;;;4982855;28;20026;-71
2022/06/27 10:33:28;;;;;;;2.30;1.95;;;23.60;93.90;;;;;;4984693;28;20030;-71
2022/06/27 10:36:02;;;;;;;2.15;1.95;;;23.70;94.40;;;;;;5001362;28;20022;-71
2022/06/27 10:38:43;;;;;;;2.97;1.83;;;23.70;93.90;;;;;;5001210;28;20018;-71
2022/06/27 10:41:16;;;;;;;2.40;2.00;;;23.80;94.00;;;;;;4985187;28;20022;-70
2022/06/27 10:43:50;;;;;;;3.00;2.00;;;23.80;93.80;;;;;;4995015;28;20229;-71
2022/06/27 10:46:16;;;;;;;3.05;1.90;;;23.90;93.60;;;;;;4997513;28;20070;-71
2022/06/27 10:48:48;;;;;;;3.03;1.80;;;23.90;95.10;;;;;;4982057;28;20246;-71
2022/06/27 10:51:18;;;;;;;2.20;2.00;;;24.00;95.10;;;;;;4982005;28;20050;-71
2022/06/27 10:53:44;;;;;;;2.88;1.50;;;24.10;95.10;;;;;;4981606;28;20065;-71
2022/06/27 10:56:29;;;;;;;1.90;1.50;;;24.20;93.50;;;;;;4980595;28;20355;-71
2022/06/27 10:58:57;;;;;;;2.17;1.60;;;24.30;93.50;;;;;;4981830;28;20019;-70
2022/06/27 11:01:23;;;;;;;1.60;1.50;;;24.40;93.70;;;;;;4981612;28;20103;-71
2022/06/27 11:03:49;;;;;;;2.03;1.60;;;24.50;94.20;;;;;;4964507;28;20367;-71
2022/06/27 11:06:15;;;;;;;2.47;1.50;;;24.60;92.90;;;;;;4948798;28;20116;-71
2022/06/27 11:08:46;;;;;;;2.45;1.58;;;24.60;92.50;;;;;;4981663;28;20445;-71
2022/06/27 11:11:16;;;;;;;1.83;1.55;;;24.70;92.80;;;;;;4989014;28;20041;-71
2022/06/27 11:13:47;;;;;;;5.30;2.08;;;24.80;92.50;;;;;;5000723;28;20046;-71
2022/06/27 11:16:33;;;;;;;1.67;1.58;;;24.90;92.50;;;;;;5000201;28;20022;-71
2022/06/27 11:21:52;;;;;;;1.70;1.58;;;25.10;91.20;;;;;;4973896;28;20031;-70
2022/06/27 11:24:18;;;;;;;1.43;1.33;;;25.20;91.10;;;;;;5003190;28;20210;-71
2022/06/27 11:26:49;;;;;;;2.15;1.40;;;25.30;90.60;;;;;;5004466;28;20598;-71
2022/06/27 11:32:11;;;;;;;3.30;1.60;;;25.50;90.00;;;;;;5003340;28;20091;-71
2022/06/27 11:34:43;;;;;;;7.45;1.40;;;25.60;91.10;;;;;;5002378;28;20053;-71
2022/06/27 11:37:14;;;;;;;2.08;1.83;;;25.70;89.40;;;;;;5003098;28;20026;-72
2022/06/27 11:39:40;;;;;;;2.38;1.70;;;25.90;90.20;;;;;;4987616;28;20041;-71
2022/06/27 11:42:09;;;;;;;3.58;1.98;;;26.00;90.30;;;;;;5003212;28;20113;-77
2022/06/27 11:44:35;;;;;;;2.28;1.83;;;26.00;87.40;;;;;;5003423;28;20037;-74
2022/06/27 11:47:07;;;;;;;2.30;2.10;;;26.10;86.80;;;;;;5003047;28;20277;-71
2022/06/27 11:49:34;;;;;;;3.72;2.35;;;26.00;86.10;;;;;;5003884;28;20089;-71
2022/06/27 11:52:05;;;;;;;4.88;2.25;;;25.90;88.00;;;;;;5003045;28;20029;-71
2022/06/27 11:55:05;;;;;;;2.95;2.60;;;25.90;86.60;;;;;;4998181;28;20094;-72
2022/06/27 11:57:32;;;;;;;2.22;2.03;;;25.90;87.20;;;;;;4999671;28;20257;-71
2022/06/27 12:00:00;;;;;;;3.15;2.85;;;25.90;88.50;;;;;;4999768;28;20110;-71
2022/06/27 12:02:30;;;;;;;7.10;3.47;;;26.00;90.40;;;;;;4984581;28;20030;-71
2022/06/27 12:05:21;;;;;;;4.97;3.63;;;26.10;90.50;;;;;;4984544;28;20035;-71
2022/06/27 12:08:06;;;;;;;5.53;3.10;;;26.20;90.20;;;;;;4983515;28;20375;-71
2022/06/27 12:10:39;;;;;;;3.50;3.20;;;26.30;89.80;;;;;;4984575;28;20054;-71
2022/06/27 12:13:29;;;;;;;4.30;3.58;;;26.30;84.60;;;;;;4984384;28;20034;-72
2022/06/27 12:15:58;;;;;;;3.97;3.47;;;26.30;85.90;;;;;;5003811;28;20026;-71
2022/06/27 12:18:33;;;;;;;5.43;4.00;;;26.20;87.50;;;;;;4984540;28;20322;-71
2022/06/27 12:20:58;;;;;;;4.85;3.55;;;26.30;88.70;;;;;;4987114;28;20207;-72
2022/06/27 12:23:24;;;;;;;4.10;3.70;;;26.30;85.40;;;;;;4999836;28;20061;-71
2022/06/27 12:25:50;;;;;;;3.50;3.20;;;26.40;86.20;;;;;;4990638;28;20039;-71
2022/06/27 12:28:16;;;;;;;5.85;4.18;;;26.50;84.90;;;;;;4983331;28;20225;-71
2022/06/27 12:30:42;;;;;;;4.20;3.83;;;26.60;85.20;;;;;;4983338;28;20031;-71
2022/06/27 12:33:08;;;;;;;6.03;3.70;;;26.60;83.30;;;;;;4967077;28;20222;-71
2022/06/27 12:35:34;;;;;;;4.82;3.90;;;26.70;83.40;;;;;;4974645;28;20032;-71
2022/06/27 12:38:01;;;;;;;7.50;4.15;;;26.70;83.80;;;;;;5002224;28;20022;-71
2022/06/27 12:40:26;;;;;;;9.10;4.32;;;26.80;84.10;;;;;;5002417;28;20258;-71
2022/06/27 12:42:52;;;;;;;5.70;4.20;;;26.80;84.40;;;;;;4993419;28;20119;-71
2022/06/27 12:45:18;;;;;;;6.43;4.78;;;27.00;84.70;;;;;;4993771;28;20349;-71
2022/06/27 12:47:44;;;;;;;4.90;4.40;;;27.10;82.70;;;;;;4995313;28;20030;-71
2022/06/27 12:50:10;;;;;;;5.00;3.95;;;27.10;84.60;;;;;;4974213;28;20023;-71
2022/06/27 12:52:36;;;;;;;;;;;27.20;82.80;;;;;;4992594;28;20202;-71
2022/06/27 12:55:03;;;;;;;5.07;4.57;;;27.40;84.20;;;;;;5003148;28;19905;-71
2022/06/27 12:57:29;;;;;;;5.28;4.70;;;27.50;83.20;;;;;;4985872;28;20029;-71
2022/06/27 12:59:55;;;;;;;5.70;5.10;;;27.50;82.30;;;;;;5002617;28;20042;-71
2022/06/27 13:02:20;;;;;;;6.40;4.60;;;27.60;84.00;;;;;;5002985;28;20026;-71
2022/06/27 13:04:46;;;;;;;6.13;4.22;;;27.70;80.60;;;;;;5002834;28;20117;-71